createdAt,value
2018-01-25T06:46:27.453Z,4
2018-01-25T06:47:36.653Z,4
2018-01-25T06:48:46.155Z,4
2018-01-25T06:49:55.622Z,4
2018-01-25T06:51:04.316Z,4
2018-01-25T06:52:13.519Z,4
2018-01-25T06:53:22.457Z,4
2018-01-25T06:54:31.411Z,4
2018-01-25T06:55:40.891Z,4
2018-01-25T06:56:49.824Z,4
2018-01-25T06:57:58.504Z,4
2018-01-25T06:59:07.190Z,4
2018-01-25T07:00:16.393Z,0
2018-01-25T07:01:25.078Z,4
2018-01-25T07:02:34.290Z,4
2018-01-25T07:03:43.005Z,4
2018-01-25T07:04:52.207Z,4
2018-01-25T07:06:01.152Z,8
2018-01-25T07:07:10.372Z,8
2018-01-25T07:08:19.845Z,4
2018-01-25T07:09:28.535Z,8
2018-01-25T07:10:37.744Z,8
2018-01-25T07:11:47.497Z,4
2018-01-25T07:12:56.968Z,8
2018-01-25T07:14:05.912Z,8
2018-01-25T07:15:14.867Z,8
2018-01-25T07:16:23.816Z,8
2018-01-25T07:17:32.520Z,12
2018-01-25T07:18:41.455Z,12
2018-01-25T07:19:50.666Z,12
2018-01-25T07:21:00.123Z,12
2018-01-25T07:22:09.075Z,16
2018-01-25T07:23:18.024Z,16
2018-01-25T07:24:26.731Z,20
2018-01-25T07:25:35.426Z,16
2018-01-25T07:26:44.373Z,20
2018-01-25T07:27:54.171Z,20
2018-01-25T07:29:03.119Z,28
2018-01-25T07:30:12.325Z,32
2018-01-25T07:31:21.541Z,32
2018-01-25T07:32:30.758Z,36
2018-01-25T07:33:39.747Z,32
2018-01-25T07:34:48.717Z,36
2018-01-25T07:35:57.985Z,36
2018-01-25T07:37:07.205Z,44
2018-01-25T07:38:16.424Z,44
2018-01-25T07:39:25.398Z,52
2018-01-25T07:40:34.664Z,52
2018-01-25T07:41:43.885Z,52
2018-01-25T07:42:53.360Z,56
2018-01-25T07:44:02.058Z,64
2018-01-25T07:45:10.790Z,68
2018-01-25T07:46:19.764Z,68
2018-01-25T07:47:28.738Z,72
2018-01-25T07:48:37.685Z,76
2018-01-25T07:49:46.375Z,84
2018-01-25T07:50:55.058Z,88
2018-01-25T07:52:04.017Z,92
2018-01-25T07:53:12.983Z,96
2018-01-25T07:54:22.788Z,100
2018-01-25T07:55:31.976Z,100
2018-01-25T07:56:40.669Z,108
2018-01-25T07:57:49.880Z,104
2018-01-25T07:58:58.845Z,104
2018-01-25T08:00:08.067Z,108
2018-01-25T08:01:17.033Z,108
2018-01-25T08:02:26.796Z,116
2018-01-25T08:03:36.280Z,120
2018-01-25T08:04:45.503Z,128
2018-01-25T08:05:54.720Z,144
2018-01-25T08:07:03.943Z,156
2018-01-25T08:08:12.912Z,156
2018-01-25T08:09:21.873Z,156
2018-01-25T08:10:30.572Z,176
2018-01-25T08:11:39.526Z,192
2018-01-25T08:12:48.262Z,216
2018-01-25T08:13:56.974Z,244
2018-01-25T08:15:06.187Z,264
2018-01-25T08:16:14.898Z,264
2018-01-25T08:17:23.625Z,276
2018-01-25T08:18:32.848Z,256
2018-01-25T08:19:42.072Z,240
2018-01-25T08:20:51.060Z,244
2018-01-25T08:22:00.827Z,228
2018-01-25T08:23:10.315Z,236
2018-01-25T08:24:19.012Z,240
2018-01-25T08:25:27.728Z,236
2018-01-25T08:26:36.976Z,228
2018-01-25T08:27:45.940Z,220
2018-01-25T08:28:54.646Z,216
2018-01-25T08:30:04.123Z,224
2018-01-25T08:31:13.353Z,236
2018-01-25T08:32:22.325Z,220
2018-01-25T08:33:31.286Z,216
2018-01-25T08:34:40.256Z,200
2018-01-25T08:35:49.233Z,196
2018-01-25T08:36:58.499Z,200
2018-01-25T08:38:07.713Z,196
2018-01-25T08:39:16.945Z,196
2018-01-25T08:40:25.645Z,188
2018-01-25T08:41:40.248Z,192
2018-01-25T08:42:49.211Z,212
2018-01-25T08:43:58.180Z,220
2018-01-25T08:45:07.131Z,212
2018-01-25T08:46:16.124Z,220
2018-01-25T08:47:25.087Z,224
2018-01-25T08:48:34.352Z,224
2018-01-25T08:49:43.628Z,228
2018-01-25T08:50:52.586Z,236
2018-01-25T08:52:01.806Z,240
2018-01-25T08:53:10.533Z,244
2018-01-25T08:54:19.483Z,236
2018-01-25T08:55:28.191Z,224
2018-01-25T08:56:37.169Z,220
2018-01-25T08:57:46.139Z,224
2018-01-25T08:58:55.108Z,236
2018-01-25T09:00:03.800Z,236
2018-01-25T09:01:12.766Z,240
2018-01-25T09:02:21.471Z,236
2018-01-25T09:03:30.490Z,232
2018-01-25T09:04:39.461Z,252
2018-01-25T09:05:48.962Z,272
2018-01-25T09:06:57.673Z,280
2018-01-25T09:08:06.893Z,288
2018-01-25T09:09:15.583Z,300
2018-01-25T09:10:24.801Z,312
2018-01-25T09:11:34.022Z,320
2018-01-25T09:12:43.258Z,328
2018-01-25T09:13:51.954Z,340
2018-01-25T09:15:00.903Z,364
2018-01-25T09:16:10.149Z,388
2018-01-25T09:17:19.116Z,412
2018-01-25T09:18:28.328Z,408
2018-01-25T09:19:37.553Z,392
2018-01-25T09:20:46.260Z,388
2018-01-25T09:21:54.953Z,380
2018-01-25T09:23:03.632Z,364
2018-01-25T09:24:12.595Z,360
2018-01-25T09:25:21.557Z,368
2018-01-25T09:26:30.541Z,388
2018-01-25T09:27:39.285Z,400
2018-01-25T09:28:48.506Z,408
2018-01-25T09:29:57.512Z,416
2018-01-25T09:31:06.992Z,420
2018-01-25T09:32:16.228Z,424
2018-01-25T09:33:25.443Z,428
2018-01-25T09:34:34.443Z,416
2018-01-25T09:35:43.416Z,404
2018-01-25T09:36:52.375Z,392
2018-01-25T09:38:01.635Z,392
2018-01-25T09:39:10.616Z,396
2018-01-25T09:40:19.610Z,384
2018-01-25T09:41:28.564Z,380
2018-01-25T09:42:37.800Z,400
2018-01-25T09:43:46.566Z,416
2018-01-25T09:44:55.275Z,444
2018-01-25T09:46:04.756Z,472
2018-01-25T09:47:13.721Z,448
2018-01-25T09:48:23.228Z,476
2018-01-25T09:49:32.184Z,488
2018-01-25T09:50:41.403Z,496
2018-01-25T09:51:50.634Z,508
2018-01-25T09:52:59.606Z,496
2018-01-25T09:54:08.835Z,504
2018-01-25T09:55:17.531Z,532
2018-01-25T09:56:26.479Z,556
2018-01-25T09:57:35.438Z,592
2018-01-25T09:58:44.663Z,608
2018-01-25T09:59:53.634Z,612
2018-01-25T10:01:02.588Z,628
2018-01-25T10:02:11.566Z,652
2018-01-25T10:03:20.790Z,700
2018-01-25T10:04:29.748Z,712
2018-01-25T10:05:38.967Z,740
2018-01-25T10:06:48.185Z,816
2018-01-25T10:07:57.147Z,884
2018-01-25T10:09:05.832Z,904
2018-01-25T10:10:14.515Z,940
2018-01-25T10:11:23.721Z,916
2018-01-25T10:12:33.655Z,848
2018-01-25T10:13:42.876Z,808
2018-01-25T10:14:51.858Z,780
2018-01-25T10:16:01.102Z,808
2018-01-25T10:17:09.813Z,804
2018-01-25T10:18:19.565Z,728
2018-01-25T10:19:28.257Z,664
2018-01-25T10:20:37.205Z,660
2018-01-25T10:21:45.903Z,708
2018-01-25T10:22:55.387Z,768
2018-01-25T10:24:04.411Z,784
2018-01-25T10:25:13.386Z,764
2018-01-25T10:26:22.088Z,772
2018-01-25T10:27:31.046Z,804
2018-01-25T10:28:39.995Z,760
2018-01-25T10:29:48.702Z,708
2018-01-25T10:30:57.922Z,676
2018-01-25T10:32:07.172Z,692
2018-01-25T10:33:16.132Z,728
2018-01-25T10:34:25.100Z,748
2018-01-25T10:35:34.048Z,792
2018-01-25T10:36:43.279Z,856
2018-01-25T10:37:52.497Z,828
2018-01-25T10:39:01.481Z,796
2018-01-25T10:40:10.449Z,792
2018-01-25T10:41:19.420Z,776
2018-01-25T10:42:28.382Z,732
2018-01-25T10:43:37.091Z,712
2018-01-25T10:44:46.297Z,708
2018-01-25T10:45:55.268Z,728
2018-01-25T10:47:04.506Z,744
2018-01-25T10:48:13.477Z,768
2018-01-25T10:49:22.708Z,804
2018-01-25T10:50:31.667Z,832
2018-01-25T10:51:40.639Z,856
2018-01-25T10:52:50.141Z,884
2018-01-25T10:53:58.843Z,892
2018-01-25T10:55:08.068Z,888
2018-01-25T10:56:16.777Z,860
2018-01-25T10:57:25.483Z,812
2018-01-25T10:58:34.511Z,764
2018-01-25T10:59:43.514Z,736
2018-01-25T11:00:53.023Z,728
2018-01-25T11:02:01.720Z,716
2018-01-25T11:03:10.690Z,700
2018-01-25T11:04:19.906Z,684
2018-01-25T11:05:29.383Z,656
2018-01-25T11:06:38.607Z,620
2018-01-25T11:07:47.832Z,592
2018-01-25T11:08:56.798Z,608
2018-01-25T11:10:05.528Z,640
2018-01-25T11:11:14.220Z,652
2018-01-25T11:12:23.179Z,664
2018-01-25T11:13:32.685Z,672
2018-01-25T11:14:41.408Z,688
2018-01-25T11:15:50.370Z,696
2018-01-25T11:16:59.321Z,700
2018-01-25T11:18:08.296Z,712
2018-01-25T11:19:17.773Z,744
2018-01-25T11:20:26.739Z,772
2018-01-25T11:21:35.768Z,792
2018-01-25T11:22:45.013Z,812
2018-01-25T11:23:53.730Z,824
2018-01-25T11:25:02.399Z,824
2018-01-25T11:26:11.103Z,816
2018-01-25T11:27:20.314Z,848
2018-01-25T11:28:29.534Z,856
2018-01-25T11:29:38.224Z,868
2018-01-25T11:30:46.917Z,872
2018-01-25T11:31:55.872Z,876
2018-01-25T11:33:04.821Z,868
2018-01-25T11:34:14.044Z,868
2018-01-25T11:35:23.009Z,868
2018-01-25T11:36:31.956Z,848
2018-01-25T11:37:40.903Z,824
2018-01-25T11:38:49.853Z,844
2018-01-25T11:39:59.316Z,880
2018-01-25T11:41:08.278Z,888
2018-01-25T11:42:17.513Z,896
2018-01-25T11:43:27.001Z,884
2018-01-25T11:44:36.210Z,844
2018-01-25T11:45:45.434Z,844
2018-01-25T11:46:54.912Z,860
2018-01-25T11:48:04.378Z,888
2018-01-25T11:49:13.335Z,920
2018-01-25T11:50:22.802Z,932
2018-01-25T11:51:31.767Z,968
2018-01-25T11:52:40.975Z,1008
2018-01-25T11:53:50.182Z,956
2018-01-25T11:54:59.134Z,1012
2018-01-25T11:56:08.076Z,1100
2018-01-25T11:57:17.037Z,1192
2018-01-25T11:58:25.718Z,1212
2018-01-25T11:59:34.680Z,1160
2018-01-25T12:00:44.164Z,1052
2018-01-25T12:01:53.644Z,992
2018-01-25T12:03:02.338Z,976
2018-01-25T12:04:11.734Z,972
2018-01-25T12:05:20.944Z,952
2018-01-25T12:06:29.962Z,900
2018-01-25T12:07:38.911Z,844
2018-01-25T12:08:47.883Z,824
2018-01-25T12:09:57.117Z,852
2018-01-25T12:11:06.100Z,884
2018-01-25T12:12:15.839Z,920
2018-01-25T12:13:25.078Z,924
2018-01-25T12:14:33.818Z,900
2018-01-25T12:15:42.779Z,884
2018-01-25T12:16:51.743Z,844
2018-01-25T12:18:00.444Z,800
2018-01-25T12:19:09.149Z,768
2018-01-25T12:20:18.894Z,740
2018-01-25T12:21:27.610Z,692
2018-01-25T12:22:37.099Z,660
2018-01-25T12:23:46.584Z,636
2018-01-25T12:24:55.533Z,604
2018-01-25T12:26:04.222Z,616
2018-01-25T12:27:13.429Z,656
2018-01-25T12:28:22.382Z,636
2018-01-25T12:29:31.602Z,596
2018-01-25T12:30:40.548Z,568
2018-01-25T12:31:49.502Z,568
2018-01-25T12:32:58.985Z,544
2018-01-25T12:34:08.198Z,528
2018-01-25T12:35:17.697Z,560
2018-01-25T12:36:27.421Z,604
2018-01-25T12:37:36.631Z,628
2018-01-25T12:38:45.596Z,656
2018-01-25T12:39:54.837Z,668
2018-01-25T12:41:03.624Z,652
2018-01-25T12:42:12.914Z,636
2018-01-25T12:43:22.908Z,620
2018-01-25T12:44:31.620Z,612
2018-01-25T12:45:40.852Z,600
2018-01-25T12:46:49.569Z,616
2018-01-25T12:47:58.781Z,616
2018-01-25T12:49:07.484Z,632
2018-01-25T12:50:16.194Z,676
2018-01-25T12:51:25.158Z,696
2018-01-25T12:52:34.139Z,624
2018-01-25T12:53:43.116Z,568
2018-01-25T12:54:51.833Z,528
2018-01-25T12:56:01.054Z,484
2018-01-25T12:57:10.030Z,452
2018-01-25T12:58:19.519Z,468
2018-01-25T12:59:28.476Z,532
2018-01-25T13:00:37.171Z,616
2018-01-25T13:01:46.127Z,648
2018-01-25T13:02:55.095Z,648
2018-01-25T13:04:04.333Z,652
2018-01-25T13:05:13.296Z,600
2018-01-25T13:06:22.519Z,524
2018-01-25T13:07:32.091Z,480
2018-01-25T13:08:41.031Z,448
2018-01-25T13:09:49.719Z,448
2018-01-25T13:10:58.672Z,524
2018-01-25T13:12:07.894Z,576
2018-01-25T13:13:17.636Z,584
2018-01-25T13:14:26.859Z,636
2018-01-25T13:15:35.803Z,672
2018-01-25T13:16:45.278Z,696
2018-01-25T13:17:53.995Z,728
2018-01-25T13:19:02.947Z,760
2018-01-25T13:20:12.478Z,784
2018-01-25T13:21:21.520Z,792
2018-01-25T13:22:30.523Z,820
2018-01-25T13:23:39.755Z,848
2018-01-25T13:24:48.964Z,856
2018-01-25T13:25:57.657Z,868
2018-01-25T13:27:06.598Z,888
2018-01-25T13:28:16.351Z,928
2018-01-25T13:29:25.572Z,960
2018-01-25T13:30:34.555Z,940
2018-01-25T13:31:43.243Z,880
2018-01-25T13:32:52.466Z,844
2018-01-25T13:34:01.952Z,820
2018-01-25T13:35:11.175Z,800
2018-01-25T13:36:20.154Z,804
2018-01-25T13:37:29.367Z,780
2018-01-25T13:38:38.070Z,736
2018-01-25T13:39:47.289Z,708
2018-01-25T13:40:56.778Z,692
2018-01-25T13:42:05.999Z,684
2018-01-25T13:43:15.471Z,668
2018-01-25T13:44:24.420Z,660
2018-01-25T13:45:33.685Z,632
2018-01-25T13:46:42.657Z,608
2018-01-25T13:47:52.135Z,600
2018-01-25T13:49:00.815Z,584
2018-01-25T13:50:10.051Z,568
2018-01-25T13:51:19.282Z,544
2018-01-25T13:52:28.259Z,528
2018-01-25T13:53:37.760Z,496
2018-01-25T13:54:46.721Z,480
2018-01-25T13:55:55.694Z,480
2018-01-25T13:57:04.656Z,472
2018-01-25T13:58:13.868Z,448
2018-01-25T13:59:22.814Z,444
2018-01-25T14:00:31.769Z,432
2018-01-25T14:01:40.987Z,408
2018-01-25T14:02:49.941Z,412
2018-01-25T14:03:59.452Z,420
2018-01-25T14:05:08.689Z,428
2018-01-25T14:06:17.654Z,424
2018-01-25T14:07:26.619Z,428
2018-01-25T14:08:35.576Z,428
2018-01-25T14:09:45.088Z,420
2018-01-25T14:10:54.043Z,420
2018-01-25T14:12:03.264Z,412
2018-01-25T14:13:12.488Z,396
2018-01-25T14:14:21.186Z,384
2018-01-25T14:15:30.130Z,372
2018-01-25T14:16:39.351Z,360
2018-01-25T14:17:48.564Z,352
2018-01-25T14:18:57.249Z,340
2018-01-25T14:20:06.478Z,316
2018-01-25T14:21:15.446Z,288
2018-01-25T14:22:24.903Z,264
2018-01-25T14:23:34.117Z,248
2018-01-25T14:24:42.814Z,236
2018-01-25T14:25:52.032Z,224
2018-01-25T14:27:01.260Z,216
2018-01-25T14:28:09.982Z,208
2018-01-25T14:29:18.694Z,200
2018-01-25T14:30:27.669Z,188
2018-01-25T14:31:36.895Z,184
2018-01-25T14:32:46.110Z,184
2018-01-25T14:33:55.915Z,184
2018-01-25T14:35:05.127Z,184
2018-01-25T14:36:14.072Z,184
2018-01-25T14:37:23.028Z,180
2018-01-25T14:38:32.531Z,180
2018-01-25T14:39:41.747Z,176
2018-01-25T14:40:50.975Z,172
2018-01-25T14:41:59.922Z,164
2018-01-25T14:43:09.127Z,164
2018-01-25T14:44:18.080Z,160
2018-01-25T14:45:26.772Z,160
2018-01-25T14:46:35.464Z,160
2018-01-25T14:47:44.677Z,164
2018-01-25T14:48:53.643Z,164
2018-01-25T14:50:02.615Z,172
2018-01-25T14:51:11.330Z,184
2018-01-25T14:52:20.557Z,192
2018-01-25T14:53:29.236Z,196
2018-01-25T14:54:38.213Z,204
2018-01-25T14:55:47.215Z,200
2018-01-25T14:56:56.421Z,188
2018-01-25T14:58:05.383Z,192
2018-01-25T14:59:14.329Z,212
2018-01-25T15:00:23.092Z,228
2018-01-25T15:01:31.791Z,244
2018-01-25T15:02:40.748Z,236
2018-01-25T15:03:50.228Z,224
2018-01-25T15:04:59.469Z,204
2018-01-25T15:06:08.188Z,184
2018-01-25T15:07:16.894Z,168
2018-01-25T15:08:25.599Z,160
2018-01-25T15:09:34.559Z,148
2018-01-25T15:10:43.240Z,132
2018-01-25T15:11:52.449Z,124
2018-01-25T15:13:01.422Z,124
2018-01-25T15:14:10.632Z,120
2018-01-25T15:15:19.609Z,120
2018-01-25T15:16:28.829Z,116
2018-01-25T15:17:38.050Z,116
2018-01-25T15:18:47.286Z,112
2018-01-25T15:19:56.262Z,104
2018-01-25T15:21:05.466Z,96
2018-01-25T15:22:14.427Z,80
2018-01-25T15:23:24.229Z,80
2018-01-25T15:24:32.929Z,80
2018-01-25T15:25:41.873Z,72
2018-01-25T15:26:50.580Z,64
2018-01-25T15:27:59.807Z,64
2018-01-25T15:29:08.774Z,60
2018-01-25T15:30:17.561Z,60
2018-01-25T15:31:26.748Z,56
2018-01-25T15:32:35.691Z,52
2018-01-25T15:33:44.387Z,48
2018-01-25T15:34:53.366Z,48
2018-01-25T15:36:03.190Z,48
2018-01-25T15:37:12.374Z,48
2018-01-25T15:38:21.340Z,48
2018-01-25T15:39:30.578Z,44
2018-01-25T15:40:40.068Z,44
2018-01-25T15:41:49.278Z,44
2018-01-25T15:42:58.247Z,44
2018-01-25T15:44:07.205Z,44
2018-01-25T15:45:15.889Z,44
2018-01-25T15:46:24.598Z,44
2018-01-25T15:47:33.853Z,44
2018-01-25T15:48:43.601Z,40
2018-01-25T15:49:52.837Z,40
2018-01-25T15:51:01.543Z,40
2018-01-25T15:52:10.258Z,36
2018-01-25T15:53:19.218Z,36
2018-01-25T15:54:28.193Z,36
2018-01-25T15:55:36.891Z,32
2018-01-25T15:56:46.123Z,28
2018-01-25T15:57:55.331Z,24
2018-01-25T15:59:04.329Z,20
2018-01-25T16:00:13.041Z,16
2018-01-25T16:01:22.010Z,12
2018-01-25T16:02:30.968Z,12
2018-01-25T16:03:39.652Z,12
2018-01-25T16:04:48.347Z,12
2018-01-25T16:05:57.561Z,12
2018-01-25T16:07:06.334Z,12
2018-01-25T16:08:15.348Z,12
2018-01-25T16:09:24.983Z,8
2018-01-25T16:10:34.684Z,8
2018-01-25T16:11:43.426Z,8
2018-01-25T16:12:52.566Z,8
2018-01-25T16:14:01.605Z,4
2018-01-25T16:15:10.614Z,4
2018-01-25T16:16:19.601Z,4
2018-01-25T16:17:28.681Z,4
2018-01-25T16:18:37.941Z,4
2018-01-25T16:19:46.927Z,4
2018-01-25T16:20:56.433Z,4
2018-01-25T16:22:06.086Z,4
2018-01-25T16:23:15.050Z,0
2018-01-25T16:24:23.766Z,0
2018-01-25T16:25:32.797Z,0
2018-01-25T16:26:41.545Z,0
2018-01-25T16:27:50.519Z,0
2018-01-25T16:28:59.544Z,0
2018-01-25T16:30:08.531Z,0
2018-01-25T16:31:17.521Z,0
2018-01-25T16:32:26.206Z,0
2018-01-25T16:33:35.442Z,0
2018-01-25T16:34:44.416Z,0
2018-01-25T16:35:53.110Z,0
2018-01-25T16:37:02.093Z,0
2018-01-25T16:38:11.601Z,0
2018-01-25T16:39:20.594Z,0
2018-01-25T16:40:29.880Z,0
2018-01-25T16:41:38.795Z,0
2018-01-25T16:42:47.500Z,0
2018-01-25T16:43:56.726Z,0
2018-01-25T16:45:05.724Z,0
2018-01-25T16:46:14.685Z,0
2018-01-25T16:47:23.417Z,0
2018-01-25T16:48:32.984Z,0
2018-01-25T16:49:41.931Z,0
2018-01-25T16:50:51.430Z,0
2018-01-25T16:52:00.663Z,0
2018-01-25T16:53:09.635Z,0
2018-01-25T16:54:18.613Z,0
2018-01-25T16:55:27.862Z,0
2018-01-25T16:56:36.905Z,0
2018-01-25T16:57:46.672Z,0
2018-01-25T16:58:55.890Z,0
2018-01-25T17:00:04.874Z,0
2018-01-25T17:01:13.897Z,0
2018-01-25T17:02:22.617Z,0
2018-01-25T17:03:31.376Z,0
2018-01-25T17:04:40.648Z,0
2018-01-25T17:05:49.342Z,0
2018-01-25T17:06:58.066Z,0
2018-01-25T17:08:07.057Z,0
2018-01-25T17:09:16.086Z,0
2018-01-25T17:10:25.405Z,0
2018-01-25T17:11:34.393Z,0
2018-01-25T17:12:43.379Z,0
2018-01-25T17:13:52.591Z,0
2018-01-25T17:15:02.345Z,0
2018-01-25T17:16:11.554Z,0
2018-01-25T17:17:20.334Z,0
2018-01-25T17:18:29.666Z,0
2018-01-25T17:19:38.892Z,0
2018-01-25T17:20:48.363Z,0
2018-01-25T17:21:57.559Z,0
2018-01-25T17:23:06.566Z,0
2018-01-25T17:24:16.091Z,0
2018-01-25T17:25:25.578Z,0
2018-01-25T17:26:34.308Z,0
2018-01-25T17:27:43.281Z,0
2018-01-25T17:28:52.057Z,0
2018-01-25T17:30:01.527Z,0
2018-01-25T17:31:10.733Z,0
2018-01-25T17:32:19.934Z,0
2018-01-25T17:33:28.624Z,0
2018-01-25T17:34:37.318Z,0
2018-01-25T17:35:46.271Z,0
2018-01-25T17:36:55.765Z,0
2018-01-25T17:38:04.717Z,0
2018-01-25T17:39:13.931Z,0
2018-01-25T17:40:23.127Z,0
2018-01-25T17:41:31.807Z,0
2018-01-25T17:42:40.747Z,0
2018-01-25T17:43:49.700Z,0
2018-01-25T17:44:58.659Z,0
2018-01-25T17:46:07.629Z,0
2018-01-25T17:47:16.638Z,0
2018-01-25T17:48:25.874Z,4
2018-01-25T17:49:35.370Z,4
2018-01-25T17:50:44.058Z,4
2018-01-25T17:51:52.743Z,4
2018-01-25T17:53:01.753Z,4
2018-01-25T17:54:10.988Z,4
2018-01-25T17:55:20.199Z,4
2018-01-25T17:56:29.148Z,4
2018-01-25T17:57:38.376Z,4
2018-01-25T17:58:47.610Z,4
2018-01-25T17:59:56.239Z,4
2018-01-25T18:01:05.180Z,4
2018-01-25T18:02:14.437Z,4
2018-01-25T18:03:23.906Z,4
2018-01-25T18:04:33.119Z,4
2018-01-25T18:05:42.378Z,4
2018-01-25T18:06:51.583Z,4
2018-01-25T18:08:00.790Z,4
2018-01-25T18:09:10.001Z,4
2018-01-25T18:10:18.955Z,0
2018-01-25T18:11:28.430Z,0
2018-01-25T18:12:37.406Z,4
2018-01-25T18:13:46.105Z,4
2018-01-25T18:14:55.305Z,4
2018-01-25T18:16:03.987Z,4
2018-01-25T18:17:12.938Z,4
2018-01-25T18:18:22.152Z,4
2018-01-25T18:19:31.625Z,4
2018-01-25T18:20:40.869Z,4
2018-01-25T18:21:50.085Z,4
2018-01-25T18:22:59.295Z,4
2018-01-25T18:24:08.507Z,4
2018-01-25T18:25:17.488Z,4
2018-01-25T18:26:26.695Z,4
2018-01-25T18:27:35.394Z,4
2018-01-25T18:28:44.880Z,4
2018-01-25T18:29:54.078Z,4
2018-01-25T18:31:03.295Z,4
2018-01-25T18:32:13.023Z,4
2018-01-25T18:33:22.256Z,4
2018-01-25T18:34:31.812Z,4
2018-01-25T18:35:40.757Z,4
2018-01-25T18:36:49.729Z,4
2018-01-25T18:37:58.672Z,4
2018-01-25T18:39:08.192Z,4
2018-01-25T18:40:17.420Z,4
2018-01-25T18:41:26.383Z,4
2018-01-25T18:42:35.334Z,4
2018-01-25T18:43:45.084Z,4
2018-01-25T18:44:54.049Z,4
2018-01-25T18:46:03.290Z,4
2018-01-25T18:47:11.995Z,4
2018-01-25T18:48:21.197Z,4
2018-01-25T18:49:29.895Z,4
2018-01-25T18:50:38.642Z,4
2018-01-25T18:51:47.366Z,4
2018-01-25T18:52:56.050Z,4
2018-01-25T18:54:04.761Z,4
2018-01-25T18:55:13.725Z,4
2018-01-25T18:56:23.220Z,4
2018-01-25T18:57:32.163Z,4
2018-01-25T18:58:40.850Z,4
2018-01-25T18:59:49.815Z,4
2018-01-25T19:00:59.032Z,4
2018-01-25T19:02:08.766Z,4
2018-01-25T19:03:18.242Z,4
2018-01-25T19:04:27.704Z,4
2018-01-25T19:05:36.903Z,0
2018-01-25T19:06:45.845Z,4
2018-01-25T19:07:55.325Z,4
2018-01-25T19:09:04.273Z,4
2018-01-25T19:10:13.481Z,4
2018-01-25T19:11:22.694Z,4
2018-01-25T19:12:31.646Z,0
2018-01-25T19:13:40.581Z,0
2018-01-25T19:14:49.532Z,0
2018-01-25T19:15:58.496Z,0
2018-01-25T19:17:07.180Z,0
2018-01-25T19:18:16.383Z,0
2018-01-25T19:19:25.876Z,0
2018-01-25T19:20:35.074Z,0
2018-01-25T19:21:44.041Z,0
2018-01-25T19:22:53.109Z,0
2018-01-25T19:24:02.314Z,0
2018-01-25T19:25:11.782Z,0
2018-01-25T19:26:20.973Z,0
2018-01-25T19:27:30.192Z,0
2018-01-25T19:28:38.887Z,0
2018-01-25T19:29:47.580Z,0
2018-01-25T19:30:56.517Z,0
2018-01-25T19:32:05.213Z,0
2018-01-25T19:33:13.920Z,0
2018-01-25T19:34:23.112Z,0
2018-01-25T19:35:31.803Z,0
2018-01-25T19:36:40.749Z,0
2018-01-25T19:37:49.426Z,0
2018-01-25T19:38:58.177Z,0
2018-01-25T19:40:06.877Z,0
2018-01-25T19:41:15.540Z,0
2018-01-25T19:42:24.744Z,0
2018-01-25T19:43:33.439Z,0
2018-01-25T19:44:42.396Z,0
2018-01-25T19:45:51.340Z,0
2018-01-25T19:47:00.286Z,0
2018-01-25T19:48:10.022Z,0
2018-01-25T19:49:18.720Z,0
2018-01-25T19:50:27.400Z,0
2018-01-25T19:51:36.082Z,0
2018-01-25T19:52:44.779Z,0
2018-01-25T19:53:53.732Z,0
2018-01-25T19:55:02.933Z,0
2018-01-25T19:56:12.410Z,0
2018-01-25T19:57:21.358Z,0
2018-01-25T19:58:30.578Z,0
2018-01-25T19:59:39.539Z,0
2018-01-25T20:00:48.228Z,0
2018-01-25T20:01:57.444Z,0
2018-01-25T20:03:06.672Z,0
2018-01-25T20:04:15.896Z,0
2018-01-25T20:05:24.867Z,0
2018-01-25T20:06:34.086Z,0
2018-01-25T20:07:43.055Z,0
2018-01-25T20:08:52.031Z,0
2018-01-25T20:10:00.988Z,0
2018-01-25T20:11:09.933Z,0
2018-01-25T20:12:19.163Z,0
2018-01-25T20:13:28.121Z,0
2018-01-25T20:14:37.076Z,0
2018-01-25T20:15:46.284Z,0
2018-01-25T20:16:55.252Z,0
2018-01-25T20:18:03.937Z,0
2018-01-25T20:19:12.647Z,0
2018-01-25T20:20:21.620Z,0
2018-01-25T20:21:30.832Z,0
2018-01-25T20:22:39.786Z,0
2018-01-25T20:23:48.481Z,0
2018-01-25T20:24:57.442Z,0
2018-01-25T20:26:06.121Z,0
2018-01-25T20:27:15.058Z,0
2018-01-25T20:28:23.740Z,0
2018-01-25T20:29:33.204Z,0
2018-01-25T20:30:41.880Z,0
2018-01-25T20:31:51.082Z,0
2018-01-25T20:33:00.066Z,0
2018-01-25T20:34:09.013Z,0
2018-01-25T20:35:17.958Z,0
2018-01-25T20:36:27.452Z,0
2018-01-25T20:37:36.415Z,0
2018-01-25T20:38:45.632Z,0
2018-01-25T20:39:54.852Z,0
2018-01-25T20:41:03.581Z,0
2018-01-25T20:42:12.272Z,0
2018-01-25T20:43:21.195Z,0
2018-01-25T20:44:30.388Z,0
2018-01-25T20:45:39.396Z,0
2018-01-25T20:46:48.334Z,0
2018-01-25T20:47:57.290Z,0
2018-01-25T20:49:06.239Z,0
2018-01-25T20:50:15.182Z,0
2018-01-25T20:51:24.138Z,0
2018-01-25T20:52:33.072Z,0
2018-01-25T20:53:42.544Z,0
2018-01-25T20:54:51.254Z,0
2018-01-25T20:56:00.199Z,0
2018-01-25T20:57:08.904Z,0
2018-01-25T20:58:17.866Z,0
2018-01-25T20:59:26.822Z,0
2018-01-25T21:00:35.788Z,0
2018-01-25T21:01:44.469Z,0
2018-01-25T21:02:53.413Z,0
2018-01-25T21:04:02.112Z,0
2018-01-25T21:05:11.601Z,0
2018-01-25T21:06:20.572Z,0
2018-01-25T21:07:29.530Z,0
2018-01-25T21:08:39.220Z,0
2018-01-25T21:09:48.051Z,0
2018-01-25T21:10:56.745Z,0
2018-01-25T21:12:05.957Z,4
2018-01-25T21:13:15.167Z,4
2018-01-25T21:14:24.665Z,0
2018-01-25T21:15:33.372Z,0
2018-01-25T21:16:42.088Z,0
2018-01-25T21:17:51.045Z,0
2018-01-25T21:19:00.015Z,0
2018-01-25T21:20:08.979Z,0
2018-01-25T21:21:18.186Z,0
2018-01-25T21:22:27.161Z,0
2018-01-25T21:23:35.834Z,0
2018-01-25T21:24:44.510Z,0
2018-01-25T21:25:53.712Z,0
2018-01-25T21:27:02.435Z,0
2018-01-25T21:28:11.399Z,0
2018-01-25T21:29:20.385Z,0
2018-01-25T21:30:29.592Z,0
2018-01-25T21:31:38.303Z,0
2018-01-25T21:32:47.496Z,0
2018-01-25T21:33:56.986Z,0
2018-01-25T21:35:06.222Z,0
2018-01-25T21:36:15.679Z,0
2018-01-25T21:37:24.387Z,0
2018-01-25T21:38:33.639Z,0
2018-01-25T21:39:42.327Z,0
2018-01-25T21:40:51.290Z,0
2018-01-25T21:42:00.568Z,0
2018-01-25T21:43:09.580Z,0
2018-01-25T21:44:18.384Z,0
2018-01-25T21:45:27.850Z,0
2018-01-25T21:46:36.806Z,0
2018-01-25T21:47:45.771Z,0
2018-01-25T21:48:54.715Z,0
2018-01-25T21:50:03.683Z,0
2018-01-25T21:51:12.632Z,0
2018-01-25T21:52:21.651Z,0
2018-01-25T21:53:30.596Z,0
2018-01-25T21:54:39.569Z,0
2018-01-25T21:55:48.264Z,0
2018-01-25T21:56:57.505Z,0
2018-01-25T21:58:06.436Z,0
2018-01-25T21:59:16.608Z,0
2018-01-25T22:00:27.156Z,0
2018-01-25T22:01:36.108Z,0
2018-01-25T22:02:45.322Z,0
2018-01-25T22:03:54.026Z,0
2018-01-25T22:05:03.500Z,0
2018-01-25T22:06:12.734Z,0
2018-01-25T22:07:21.964Z,0
2018-01-25T22:08:30.929Z,0
2018-01-25T22:09:39.944Z,0
2018-01-25T22:10:49.176Z,0
2018-01-25T22:11:58.140Z,0
2018-01-25T22:13:07.386Z,0
2018-01-25T22:14:16.367Z,0
2018-01-25T22:15:25.873Z,0
2018-01-25T22:16:34.587Z,0
2018-01-25T22:17:43.605Z,0
2018-01-25T22:18:52.808Z,0
2018-01-25T22:20:01.799Z,0
2018-01-25T22:21:10.777Z,0
2018-01-25T22:22:19.494Z,0
2018-01-25T22:23:28.473Z,0
2018-01-25T22:24:37.163Z,0
2018-01-25T22:25:45.851Z,0
2018-01-25T22:26:55.075Z,0
2018-01-25T22:28:04.050Z,0
2018-01-25T22:29:13.309Z,0
2018-01-25T22:30:22.025Z,0
2018-01-25T22:31:32.455Z,0
2018-01-25T22:32:41.144Z,0
2018-01-25T22:33:49.885Z,0
2018-01-25T22:34:58.569Z,0
2018-01-25T22:36:07.570Z,0
2018-01-25T22:37:16.520Z,0
2018-01-25T22:38:25.546Z,0
2018-01-25T22:39:35.283Z,0
2018-01-25T22:40:44.756Z,0
2018-01-25T22:41:53.714Z,0
2018-01-25T22:43:02.938Z,0
2018-01-25T22:44:12.149Z,0
2018-01-25T22:45:21.129Z,0
2018-01-25T22:46:30.106Z,0
2018-01-25T22:47:38.840Z,0
2018-01-25T22:48:48.043Z,0
2018-01-25T22:49:56.742Z,0
2018-01-25T22:51:06.215Z,0
2018-01-25T22:52:15.190Z,0
2018-01-25T22:53:23.905Z,0
2018-01-25T22:54:32.600Z,0
2018-01-25T22:55:41.574Z,0
2018-01-25T22:56:50.549Z,0
2018-01-25T22:57:59.515Z,0
2018-01-25T22:59:08.202Z,0
2018-01-25T23:00:16.880Z,0
2018-01-25T23:01:26.106Z,0
2018-01-25T23:02:34.799Z,0
2018-01-25T23:03:44.012Z,0
2018-01-25T23:04:53.061Z,0
2018-01-25T23:06:02.279Z,0
2018-01-25T23:07:11.226Z,0
2018-01-25T23:08:20.174Z,0
2018-01-25T23:09:29.467Z,0
2018-01-25T23:10:38.472Z,0